createdAt,value
2023-04-19T00:04:10.115Z,62.58
2023-04-19T00:09:12.114Z,62.65
2023-04-19T00:14:14.116Z,62.95
2023-04-19T00:19:16.320Z,62.70
2023-04-19T00:24:18.451Z,62.51
2023-04-19T00:29:20.199Z,62.58
2023-04-19T00:34:22.037Z,62.28
2023-04-19T00:39:24.149Z,62.26
2023-04-19T00:44:25.926Z,62.47
2023-04-19T00:49:30.024Z,62.42
2023-04-19T00:54:33.527Z,62.33
2023-04-19T00:59:35.416Z,62.69
2023-04-19T01:04:39.028Z,61.91
2023-04-19T01:09:43.395Z,62.27
2023-04-19T01:14:45.231Z,62.31
2023-04-19T01:19:47.387Z,62.16
2023-04-19T01:24:49.173Z,62.45
2023-04-19T01:29:51.048Z,61.95
2023-04-19T01:34:53.219Z,62.10
2023-04-19T01:39:55.024Z,61.75
2023-04-19T01:44:56.817Z,61.57
2023-04-19T01:49:58.591Z,61.58
2023-04-19T01:55:00.437Z,61.87
2023-04-19T02:00:02.596Z,61.90
2023-04-19T02:05:08.519Z,61.48
2023-04-19T02:10:14.352Z,61.31
2023-04-19T02:15:16.144Z,61.28
2023-04-19T02:20:17.987Z,61.34
2023-04-19T02:25:20.091Z,61.59
2023-04-19T02:30:21.952Z,61.08
2023-04-19T02:35:25.465Z,61.39
2023-04-19T02:40:27.292Z,60.95
2023-04-19T02:45:29.119Z,61.06
2023-04-19T02:50:31.154Z,61.23
2023-04-19T02:55:33.417Z,61.09
2023-04-19T03:00:50.138Z,61.00
2023-04-19T03:05:55.687Z,61.40
2023-04-19T03:10:58.496Z,61.25
2023-04-19T03:16:00.698Z,61.00
2023-04-19T03:21:05.532Z,61.16
2023-04-19T03:26:16.132Z,61.14
2023-04-19T03:31:21.849Z,60.78
2023-04-19T03:36:27.018Z,60.58
2023-04-19T03:41:29.058Z,60.71
2023-04-19T03:46:51.266Z,61.01
2023-04-19T03:51:57.855Z,61.40
2023-04-19T03:57:01.194Z,61.20
2023-04-19T04:02:04.220Z,61.44
2023-04-19T04:07:06.140Z,61.44
2023-04-19T04:12:08.597Z,60.95
2023-04-19T04:17:11.310Z,61.05
2023-04-19T04:22:13.243Z,60.79
2023-04-19T04:27:21.347Z,60.76
2023-04-19T04:32:24.992Z,60.80
2023-04-19T04:37:36.279Z,61.21
2023-04-19T04:42:39.178Z,60.97
2023-04-19T04:47:41.765Z,60.52
2023-04-19T04:52:45.797Z,60.70
2023-04-19T04:57:54.468Z,60.19
2023-04-19T05:03:04.201Z,59.98
2023-04-19T05:08:10.717Z,59.88
2023-04-19T05:13:13.904Z,60.33
2023-04-19T05:18:16.085Z,60.26
2023-04-19T05:23:18.800Z,59.59
2023-04-19T05:28:20.792Z,59.80
2023-04-19T05:33:35.103Z,58.96
2023-04-19T05:38:37.034Z,58.99
2023-04-19T05:43:40.050Z,58.56
2023-04-19T05:48:43.225Z,58.09
2023-04-19T05:54:03.561Z,57.70
2023-04-19T05:59:06.720Z,57.50
2023-04-19T06:04:08.599Z,57.22
2023-04-19T06:09:12.405Z,56.69
2023-04-19T06:14:15.910Z,56.39
2023-04-19T06:19:19.092Z,56.04
2023-04-19T06:24:20.973Z,56.31
2023-04-19T06:29:24.242Z,55.39
2023-04-19T06:34:26.006Z,54.84
2023-04-19T06:39:28.459Z,55.18
2023-04-19T06:44:30.283Z,55.19
2023-04-19T06:49:32.107Z,54.31
2023-04-19T06:54:33.917Z,54.35
2023-04-19T06:59:39.933Z,54.04
2023-04-19T07:04:42.128Z,53.12
2023-04-19T07:09:44.140Z,52.37
2023-04-19T07:14:45.947Z,52.46
2023-04-19T07:19:49.045Z,51.02
2023-04-19T07:24:52.225Z,50.88
2023-04-19T07:29:54.047Z,50.61
2023-04-19T07:34:56.055Z,50.08
2023-04-19T07:39:57.913Z,49.38
2023-04-19T07:45:00.270Z,48.75
2023-04-19T07:50:02.131Z,48.37
2023-04-19T07:55:04.279Z,48.13
2023-04-19T08:00:06.950Z,47.94
2023-04-19T08:05:17.695Z,47.26
2023-04-19T08:10:22.224Z,47.00
2023-04-19T08:16:04.919Z,46.71
2023-04-19T08:20:49.323Z,45.59
2023-04-19T08:25:51.353Z,45.72
2023-04-19T08:30:54.484Z,45.98
2023-04-19T08:35:56.278Z,45.61
2023-04-19T08:40:58.185Z,45.79
2023-04-19T08:46:00.371Z,45.75
2023-04-19T08:51:05.583Z,45.61
2023-04-19T08:56:18.095Z,45.56
2023-04-19T09:06:41.616Z,45.34
2023-04-19T09:11:43.790Z,45.11
2023-04-19T09:16:46.301Z,45.37
2023-04-19T09:21:51.874Z,45.41
2023-04-19T09:26:55.044Z,44.87
2023-04-19T09:31:59.560Z,44.86
2023-04-19T09:37:24.963Z,45.10
2023-04-19T09:48:11.543Z,44.84
2023-04-19T09:53:14.247Z,43.84
2023-04-19T09:58:17.057Z,44.00
2023-04-19T10:03:20.541Z,44.00
2023-04-19T10:08:22.376Z,43.31
2023-04-19T10:13:26.835Z,44.40
2023-04-19T10:18:29.803Z,43.95
2023-04-19T10:23:33.384Z,44.30
2023-04-19T10:28:36.828Z,44.13
2023-04-19T10:33:38.839Z,44.20
2023-04-19T10:38:48.983Z,44.20
2023-04-19T10:43:57.838Z,44.59
2023-04-19T10:49:01.211Z,44.18
2023-04-19T10:54:07.371Z,44.35
2023-04-19T10:59:13.292Z,44.14
2023-04-19T11:04:30.182Z,44.31
2023-04-19T11:09:38.305Z,44.22
2023-04-19T11:14:42.907Z,44.39
2023-04-19T11:20:03.393Z,44.28
2023-04-19T11:25:17.361Z,44.29
2023-04-19T11:30:22.580Z,43.87
2023-04-19T11:35:26.945Z,43.88
2023-04-19T11:40:28.888Z,43.71
2023-04-19T11:45:39.495Z,43.25
2023-04-19T11:50:43.690Z,43.41
2023-04-19T11:55:53.345Z,43.60
2023-04-19T12:00:56.586Z,42.33
2023-04-19T12:06:00.785Z,43.22
2023-04-19T12:11:03.757Z,42.82
2023-04-19T12:16:05.710Z,43.08
2023-04-19T12:21:08.053Z,43.26
2023-04-19T12:26:09.869Z,43.28
2023-04-19T12:31:11.728Z,43.10
2023-04-19T12:36:13.559Z,42.75
2023-04-19T12:41:15.376Z,42.82
2023-04-19T12:46:17.186Z,42.82
2023-04-19T12:51:19.020Z,42.96
2023-04-19T12:56:21.381Z,43.14
2023-04-19T13:01:23.676Z,43.26
2023-04-19T13:06:26.370Z,43.05
2023-04-19T13:11:28.311Z,43.14
2023-04-19T13:16:30.124Z,42.72
2023-04-19T13:21:32.018Z,43.01
2023-04-19T13:26:36.875Z,42.96
2023-04-19T13:31:38.907Z,42.68
2023-04-19T13:36:41.274Z,42.87
2023-04-19T13:41:43.340Z,42.70
2023-04-19T13:46:45.328Z,42.52
2023-04-19T13:51:50.732Z,42.37
2023-04-19T13:56:52.964Z,42.31
2023-04-19T14:01:56.133Z,42.47
2023-04-19T14:06:58.054Z,43.27
2023-04-19T14:12:00.379Z,44.07
2023-04-19T14:17:02.314Z,44.51
2023-04-19T14:22:04.107Z,44.70
2023-04-19T14:27:10.316Z,45.08
2023-04-19T14:32:24.992Z,45.68
2023-04-19T14:37:28.708Z,46.67
2023-04-19T14:42:30.994Z,47.53
2023-04-19T14:47:32.784Z,47.84
2023-04-19T14:52:34.924Z,47.91
2023-04-19T14:57:36.727Z,48.19
2023-04-19T15:02:38.714Z,48.65
2023-04-19T15:07:40.660Z,48.66
2023-04-19T15:12:42.535Z,48.80
2023-04-19T15:17:44.472Z,49.15
2023-04-19T15:22:46.277Z,49.30
2023-04-19T15:27:48.050Z,49.67
2023-04-19T15:32:49.913Z,50.01
2023-04-19T15:37:51.695Z,50.17
2023-04-19T15:42:53.463Z,50.17
2023-04-19T15:47:55.342Z,50.41
2023-04-19T15:52:57.556Z,50.71
2023-04-19T15:58:00.071Z,50.44
2023-04-19T16:03:02.043Z,50.38
2023-04-19T16:08:09.198Z,50.44
2023-04-19T16:13:13.449Z,50.92
2023-04-19T16:18:15.464Z,50.31
2023-04-19T16:23:17.346Z,50.81
2023-04-19T16:28:19.928Z,50.87
2023-04-19T16:33:21.883Z,50.72
2023-04-19T16:38:23.736Z,50.74
2023-04-19T16:43:25.522Z,51.21
2023-04-19T16:48:27.396Z,51.58
2023-04-19T16:53:31.375Z,51.44
2023-04-19T16:58:33.155Z,51.44
2023-04-19T17:03:35.454Z,50.98
2023-04-19T17:08:38.571Z,51.30
2023-04-19T17:13:40.461Z,51.39
2023-04-19T17:18:42.219Z,51.13
2023-04-19T17:23:45.625Z,51.16
2023-04-19T17:28:47.417Z,51.40
2023-04-19T17:33:49.318Z,50.84
2023-04-19T17:38:51.131Z,51.21
2023-04-19T17:43:52.993Z,51.43
2023-04-19T17:48:55.607Z,51.29
2023-04-19T17:53:57.397Z,51.71
2023-04-19T17:59:00.834Z,52.03
2023-04-19T18:04:03.420Z,52.70
2023-04-19T18:09:05.450Z,52.95
2023-04-19T18:14:07.509Z,52.57
2023-04-19T18:19:09.568Z,52.56
2023-04-19T18:24:11.444Z,52.32
2023-04-19T18:29:16.001Z,52.53
2023-04-19T18:34:18.203Z,52.47
2023-04-19T18:39:19.984Z,53.23
2023-04-19T18:44:44.191Z,52.76
2023-04-19T18:49:49.325Z,52.68
2023-04-19T18:54:59.801Z,53.28
2023-04-19T19:00:02.609Z,52.48
2023-04-19T19:05:07.442Z,52.77
2023-04-19T19:15:16.149Z,52.55
2023-04-19T19:20:20.055Z,53.05
2023-04-19T19:25:23.209Z,52.81
2023-04-19T19:30:26.104Z,52.86
2023-04-19T19:35:28.767Z,52.89
2023-04-19T19:40:32.728Z,53.31
2023-04-19T19:45:36.898Z,52.75
2023-04-19T19:51:07.282Z,52.55
2023-04-19T19:56:01.816Z,52.49
2023-04-19T20:01:04.365Z,52.68
2023-04-19T20:11:12.220Z,53.61
2023-04-19T20:16:15.006Z,54.07
2023-04-19T20:21:19.779Z,53.60
2023-04-19T20:26:22.057Z,53.86
2023-04-19T20:31:24.133Z,53.58
2023-04-19T20:36:27.652Z,53.62
2023-04-19T20:41:29.520Z,54.52
2023-04-19T20:46:32.133Z,53.97
2023-04-19T20:51:34.033Z,54.14
2023-04-19T20:56:35.804Z,54.49
2023-04-19T21:01:37.714Z,54.53
2023-04-19T21:06:39.564Z,54.43
2023-04-19T21:11:41.323Z,55.03
2023-04-19T21:16:43.092Z,55.07
2023-04-19T21:21:45.113Z,54.19
2023-04-19T21:26:46.922Z,54.76
2023-04-19T21:31:48.756Z,54.26
2023-04-19T21:36:50.633Z,54.81
2023-04-19T21:41:52.479Z,54.83
2023-04-19T21:46:54.281Z,54.67
2023-04-19T21:51:56.985Z,54.69
2023-04-19T21:56:59.804Z,54.79
2023-04-19T22:02:01.672Z,54.33
2023-04-19T22:07:03.562Z,54.59
2023-04-19T22:12:06.163Z,54.63
2023-04-19T22:17:09.107Z,54.41
2023-04-19T22:22:10.936Z,54.80
2023-04-19T22:27:12.714Z,54.69
2023-04-19T22:32:14.555Z,54.71
2023-04-19T22:37:16.527Z,54.30
2023-04-19T22:42:18.354Z,54.16
2023-04-19T22:47:20.151Z,53.92
2023-04-19T22:52:21.968Z,54.52
2023-04-19T22:57:23.796Z,54.50
2023-04-19T23:02:25.727Z,54.00
2023-04-19T23:07:28.984Z,53.98
2023-04-19T23:12:31.222Z,54.66
2023-04-19T23:17:33.136Z,54.53
2023-04-19T23:22:34.970Z,55.11
2023-04-19T23:27:36.818Z,54.86
2023-04-19T23:32:38.709Z,54.90
2023-04-19T23:37:41.089Z,54.97
2023-04-19T23:42:42.875Z,55.12
2023-04-19T23:47:44.986Z,55.03
2023-04-19T23:52:46.775Z,55.09
2023-04-19T23:57:49.317Z,55.13
